Wednesday, November 22, 2017, 4:12 AM EST
Back to Local

KIAG, Niagara Falls International Airport

Location: Niagara Falls, NY, United States Lat: 43.117
Local Time: 4:12 AM EST ( 9:12 GMT) Lon: -78.933
Time Zone: US/Eastern Elev: 583 ft

Show me the last for .
Show Coded

Time T Td Feel RH Dir Speed Gust Alt SLP Vis Weather Sky Remarks
2017-11-22 03:53 38 32 31 78 300° 9 - 29.98 30.00 10 OVC026 1-hr Precip Total: Trace
6-hr Precip Total (4am): 0.05"
2017-11-22 03:31 37 33 32 85 270° 6 - 29.97 - 10 -RA FEW009 FEW015 OVC024 1-hr Precip Total: Trace
2017-11-22 03:22 37 33 33 85 280° 5 - 29.97 - 8 -RA SCT007 BKN013 OVC022 1-hr Precip Total: Trace
2017-11-22 02:53 37 33 32 85 290° 6 - 29.96 29.98 8 -RA BKN008 BKN012 OVC019 1-hr Precip Total: 0.01"
2017-11-22 02:23 37 33 31 85 320° 8 - 29.95 - 7 -RA SCT007 OVC023 1-hr Precip Total: Trace
2017-11-22 01:53 37 32 29 81 330° 12 - 29.94 29.96 6 -RA BKN007 OVC011 1-hr Precip Total: 0.04"
2017-11-22 01:23 38 33 30 82 330° 13 - 29.93 - 6 -RA BKN008 OVC013 1-hr Precip Total: 0.02"
2017-11-22 00:53 39 34 32 81 310° 10 - 29.92 29.94 8 -RA OVC010 1-hr Precip Total: 0.03"
6-hr Precip Total (1am): 0.09"
6-hr Min Temp (1am): 39.0°F
6-hr Max Temp (1am): 51.1°F
2017-11-21 23:53 41 35 34 79 280° 13 - 29.90 29.92 8 -RA BKN011 BKN015 OVC020 1-hr Precip Total: 0.03"
24-hr Min Temp (12am): 41.0°F
24-hr Max Temp (12am): 54.0°F
2017-11-21 23:29 41 36 35 82 290° 10 - 29.89 - 9 -RA FEW008 OVC014 1-hr Precip Total: 0.02"
2017-11-21 23:22 41 36 36 82 280° 8 - 29.89 - 10 -RA FEW008 BKN017 OVC035 1-hr Precip Total: 0.02"
2017-11-21 23:11 42 36 37 78 290° 8 - 29.88 - 9 -RA SCT010 BKN013 OVC030 1-hr Precip Total: 0.01"
2017-11-21 22:53 42 36 36 78 280° 10 - 29.88 29.90 8 -RA FEW010 FEW015 OVC028 1-hr Precip Total: 0.02"
2017-11-21 22:26 43 37 36 79 290° 14 - 29.87 - 8 -RA FEW012 BKN025 OVC046 1-hr Precip Total: 0.01"
2017-11-21 21:53 44 37 36 76 300° 17 - 29.85 29.88 7 -RA FEW024 BKN034 OVC046 1-hr Precip Total: 0.01"
6-hr Precip Total (10pm): 0.01"
2017-11-21 20:53 48 37 40 65 260° 17 26 29.84 29.85 10 -RA SCT035 OVC044 1-hr Precip Total: Trace
2017-11-21 19:53 51 36 - 56 240° 16 25 29.83 29.84 10 BKN060 None
2017-11-21 18:53 50 35 44 56 250° 18 - 29.82 29.83 10 FEW060 SCT120 6-hr Min Temp (7pm): 50.0°F
6-hr Max Temp (7pm): 54.0°F
2017-11-21 17:53 50 34 45 53 240° 13 - 29.80 29.82 10 CLR None
2017-11-21 16:53 51 32 - 47 240° 22 29 29.79 29.80 10 CLR Peak wind: 32 mph (28 kts) from 240° at 24 min
2017-11-21 15:53 52 31 - 44 240° 22 32 29.76 29.78 10 CLR Peak wind: 48 mph (42 kts) from 250° at 16 min
2017-11-21 14:53 54 30 - 39 230° 25 40 29.73 29.75 10 CLR Peak wind: 48 mph (42 kts) from 230° at 09 min
2017-11-21 13:53 54 30 - 39 240° 31 48 29.72 29.74 10 CLR Peak wind: 49 mph (43 kts) from 220° at 54 min
2017-11-21 12:53 54 30 - 39 220° 37 47 29.70 29.72 10 CLR Peak wind: 52 mph (46 kts) from 220° at 43 min
6-hr Min Temp (1pm): 45.0°F
6-hr Max Temp (1pm): 54.0°F
2017-11-21 11:53 52 30 - 42 220° 30 40 29.70 29.72 10 CLR Peak wind: 47 mph (41 kts) from 220° at 06 min
2017-11-21 10:53 51 29 - 42 220° 30 38 29.73 29.74 10 CLR Peak wind: 46 mph (40 kts) from 210° at 35 min
2017-11-21 09:53 49 28 39 44 210° 26 39 29.72 29.74 10 CLR Peak wind: 42 mph (37 kts) from 200° at 58 min
2017-11-21 08:53 48 26 39 42 210° 25 36 29.72 29.74 10 CLR Peak wind: 36 mph (32 kts) from 210° at 09 min
2017-11-21 07:53 45 25 35 45 210° 22 32 29.74 29.76 10 CLR Peak wind: 32 mph (28 kts) from 210° at 44 min
2017-11-21 06:53 45 26 36 47 210° 16 26 29.76 29.78 10 CLR 6-hr Min Temp (7am): 43.0°F
6-hr Max Temp (7am): 45.0°F
2017-11-21 05:53 44 25 35 46 200° 16 22 29.78 29.80 10 CLR None
2017-11-21 04:53 44 26 35 48 200° 18 25 29.80 29.82 10 CLR None

Support USWX by starting your Amazon purchase here.